createdAt,value
2022-10-22T00:00:35.618Z,12.50
2022-10-22T00:03:26.386Z,10.40
2022-10-22T00:06:15.671Z,10.47
2022-10-22T00:09:05.422Z,10.50
2022-10-22T00:11:54.766Z,10.00
2022-10-22T00:14:44.668Z,10.53
2022-10-22T00:17:34.082Z,9.90
2022-10-22T00:20:24.785Z,10.40
2022-10-22T00:23:14.071Z,10.40
2022-10-22T00:26:03.390Z,10.07
2022-10-22T00:28:52.675Z,10.43
2022-10-22T00:31:41.964Z,10.57
2022-10-22T00:34:31.311Z,9.90
2022-10-22T00:37:22.016Z,10.00
2022-10-22T00:40:13.079Z,10.13
2022-10-22T00:43:02.387Z,11.00
2022-10-22T00:45:51.763Z,9.83
2022-10-22T00:48:41.039Z,10.73
2022-10-22T00:51:34.100Z,10.20
2022-10-22T00:54:24.806Z,9.90
2022-10-22T00:57:14.317Z,10.23
2022-10-22T01:00:04.736Z,10.97
2022-10-22T01:02:55.795Z,10.20
2022-10-22T01:05:51.907Z,10.00
2022-10-22T01:08:48.459Z,10.13
2022-10-22T01:11:54.877Z,9.87
2022-10-22T01:15:03.653Z,10.20
2022-10-22T01:18:00.908Z,10.67
2022-10-22T01:21:08.743Z,9.93
2022-10-22T01:24:29.777Z,10.13
2022-10-22T01:27:42.147Z,9.90
2022-10-22T01:30:33.158Z,9.70
2022-10-22T01:33:25.275Z,10.50
2022-10-22T01:36:15.740Z,10.10
2022-10-22T01:39:06.941Z,9.67
2022-10-22T01:41:56.875Z,9.87
2022-10-22T01:44:48.804Z,9.90
2022-10-22T01:47:55.276Z,10.27
2022-10-22T01:51:24.240Z,10.33
2022-10-22T01:54:28.755Z,10.20
2022-10-22T01:57:25.745Z,10.03
2022-10-22T02:00:19.067Z,10.13
2022-10-22T02:03:18.525Z,10.20
2022-10-22T02:06:18.118Z,10.67
2022-10-22T02:09:10.343Z,10.50
2022-10-22T02:12:02.555Z,10.30
2022-10-22T02:14:53.227Z,10.00
2022-10-22T02:17:44.905Z,10.30
2022-10-22T02:20:38.861Z,10.27
2022-10-22T02:23:28.426Z,10.40
2022-10-22T02:26:23.382Z,9.80
2022-10-22T02:29:16.901Z,10.37
2022-10-22T02:32:08.745Z,9.90
2022-10-22T02:34:59.010Z,10.20
2022-10-22T02:37:50.515Z,10.10
2022-10-22T02:40:40.436Z,10.07
2022-10-22T02:43:30.858Z,9.90
2022-10-22T02:46:20.211Z,10.33
2022-10-22T02:49:09.527Z,10.40
2022-10-22T02:51:59.754Z,10.03
2022-10-22T02:54:50.445Z,10.60
2022-10-22T02:57:39.911Z,10.00
2022-10-22T03:00:29.576Z,10.20
2022-10-22T03:03:19.041Z,9.90
2022-10-22T03:06:09.027Z,10.43
2022-10-22T03:08:59.017Z,10.90
2022-10-22T03:11:49.697Z,10.23
2022-10-22T03:14:39.089Z,9.97
2022-10-22T03:17:28.454Z,10.10
2022-10-22T03:20:18.010Z,10.20
2022-10-22T03:23:07.558Z,9.93
2022-10-22T03:25:56.885Z,9.97
2022-10-22T03:28:49.130Z,9.90
2022-10-22T03:31:38.565Z,10.30
2022-10-22T03:34:27.893Z,10.03
2022-10-22T03:37:17.694Z,10.30
2022-10-22T03:40:11.525Z,10.57
2022-10-22T03:43:00.886Z,10.20
2022-10-22T03:45:51.561Z,10.50
2022-10-22T03:48:40.834Z,10.20
2022-10-22T03:51:30.452Z,13.10
2022-10-22T03:54:19.784Z,10.10
2022-10-22T03:57:09.611Z,10.40
2022-10-22T03:59:58.935Z,10.20
2022-10-22T04:02:49.600Z,10.57
2022-10-22T04:05:38.902Z,10.10
2022-10-22T04:08:28.204Z,10.23
2022-10-22T04:11:18.163Z,10.20
2022-10-22T04:14:07.750Z,10.40
2022-10-22T04:16:57.253Z,10.40
2022-10-22T04:19:47.911Z,10.10
2022-10-22T04:22:38.268Z,10.40
2022-10-22T04:25:27.626Z,10.00
2022-10-22T04:28:16.953Z,10.70
2022-10-22T04:31:10.389Z,10.40
2022-10-22T04:34:01.741Z,10.30
2022-10-22T04:36:52.393Z,9.80
2022-10-22T04:39:41.721Z,10.63
2022-10-22T04:42:31.209Z,9.80
2022-10-22T04:45:20.539Z,9.93
2022-10-22T04:48:09.833Z,10.20
2022-10-22T04:51:00.795Z,10.50
2022-10-22T04:53:51.748Z,10.00
2022-10-22T04:56:41.029Z,10.40
2022-10-22T04:59:30.433Z,10.10
2022-10-22T05:02:19.709Z,10.23
2022-10-22T05:05:09.578Z,10.10
2022-10-22T05:07:58.869Z,10.27
2022-10-22T05:10:49.579Z,10.07
2022-10-22T05:13:38.880Z,11.13
2022-10-22T05:16:30.103Z,10.63
2022-10-22T05:19:23.980Z,10.47
2022-10-22T05:22:13.430Z,10.30
2022-10-22T05:25:02.809Z,10.47
2022-10-22T05:27:56.141Z,10.10
2022-10-22T05:30:55.087Z,11.10
2022-10-22T05:33:45.094Z,10.87
2022-10-22T05:36:34.409Z,10.47
2022-10-22T05:39:23.679Z,10.60
2022-10-22T05:42:12.986Z,10.00
2022-10-22T05:45:03.610Z,10.20
2022-10-22T05:47:52.959Z,10.37
2022-10-22T05:50:42.269Z,11.23
2022-10-22T05:53:32.441Z,10.67
2022-10-22T05:56:22.275Z,10.20
2022-10-22T05:59:12.487Z,10.20
2022-10-22T06:02:03.214Z,10.00
2022-10-22T06:04:52.540Z,10.47
2022-10-22T06:07:41.884Z,10.87
2022-10-22T06:10:31.632Z,10.27
2022-10-22T06:13:21.071Z,10.30
2022-10-22T06:16:10.533Z,10.13
2022-10-22T06:19:03.039Z,11.17
2022-10-22T06:21:52.359Z,10.87
2022-10-22T06:24:45.027Z,10.47
2022-10-22T06:27:34.652Z,10.40
2022-10-22T06:30:23.954Z,10.20
2022-10-22T06:33:13.268Z,10.60
2022-10-22T06:36:16.123Z,10.40
2022-10-22T06:39:05.954Z,10.20
2022-10-22T06:41:55.340Z,13.03
2022-10-22T06:44:44.659Z,13.10
2022-10-22T06:47:34.073Z,11.70
2022-10-22T06:50:24.628Z,11.50
2022-10-22T06:53:15.893Z,11.20
2022-10-22T06:56:07.522Z,10.80
2022-10-22T06:58:59.444Z,10.77
2022-10-22T07:01:49.092Z,10.90
2022-10-22T07:04:38.470Z,10.70
2022-10-22T07:07:27.926Z,11.33
2022-10-22T07:10:18.873Z,11.00
2022-10-22T07:13:08.173Z,10.63
2022-10-22T07:15:57.474Z,10.70
2022-10-22T07:18:48.159Z,10.33
2022-10-22T07:21:37.460Z,10.43
2022-10-22T07:24:27.108Z,10.20
2022-10-22T07:27:17.779Z,9.83
2022-10-22T07:30:09.456Z,9.60
2022-10-22T07:32:58.754Z,9.87
2022-10-22T07:35:48.247Z,9.50
2022-10-22T07:38:38.161Z,10.00
2022-10-22T07:41:29.165Z,9.67
2022-10-22T07:44:19.876Z,9.60
2022-10-22T07:47:09.256Z,9.53
2022-10-22T07:49:58.587Z,9.87
2022-10-22T07:52:48.077Z,10.00
2022-10-22T07:55:37.829Z,9.90
2022-10-22T07:58:27.469Z,9.80
2022-10-22T08:01:18.323Z,10.37
2022-10-22T08:04:08.434Z,9.30
2022-10-22T08:06:58.057Z,9.67
2022-10-22T08:09:47.332Z,9.47
2022-10-22T08:12:37.529Z,10.07
2022-10-22T08:15:27.401Z,10.03
2022-10-22T08:18:18.541Z,9.63
2022-10-22T08:21:08.437Z,9.90
2022-10-22T08:23:58.012Z,9.50
2022-10-22T08:26:47.526Z,9.57
2022-10-22T08:29:37.296Z,9.70
2022-10-22T08:35:23.143Z,9.70
2022-10-22T08:38:12.404Z,9.70
2022-10-22T08:41:10.937Z,9.50
2022-10-22T08:44:29.526Z,9.70
2022-10-22T08:47:39.021Z,9.80
2022-10-22T08:50:38.421Z,9.57
2022-10-22T08:53:33.497Z,9.50
2022-10-22T08:56:25.267Z,9.33
2022-10-22T08:59:24.480Z,9.53
2022-10-22T09:02:39.524Z,9.40
2022-10-22T09:05:47.793Z,9.33
2022-10-22T09:08:39.318Z,10.93
2022-10-22T09:11:33.355Z,10.33
2022-10-22T09:14:25.348Z,10.40
2022-10-22T09:17:22.729Z,9.83
2022-10-22T09:20:18.670Z,9.87
2022-10-22T09:23:28.360Z,9.30
2022-10-22T09:26:18.420Z,9.70
2022-10-22T09:29:08.429Z,9.77
2022-10-22T09:31:57.841Z,9.90
2022-10-22T09:34:48.030Z,10.00
2022-10-22T09:37:37.907Z,9.83
2022-10-22T09:40:28.651Z,9.50
2022-10-22T09:43:19.078Z,9.70
2022-10-22T09:46:16.885Z,9.83
2022-10-22T09:49:13.050Z,9.27
2022-10-22T09:52:03.286Z,9.20
2022-10-22T09:54:54.524Z,9.67
2022-10-22T09:57:45.820Z,8.67
2022-10-22T10:00:35.409Z,8.77
2022-10-22T10:03:27.870Z,10.23
2022-10-22T10:06:20.726Z,9.20
2022-10-22T10:09:17.751Z,8.97
2022-10-22T10:12:26.227Z,9.00
2022-10-22T10:15:23.874Z,8.93
2022-10-22T10:18:29.510Z,8.80
2022-10-22T10:21:28.179Z,8.40
2022-10-22T10:24:26.757Z,8.70
2022-10-22T10:27:25.426Z,8.70
2022-10-22T10:30:20.596Z,8.70
2022-10-22T10:33:23.893Z,8.80
2022-10-22T10:36:21.259Z,8.40
2022-10-22T10:39:14.581Z,9.10
2022-10-22T10:42:14.316Z,8.67
2022-10-22T10:45:19.394Z,8.93
2022-10-22T10:48:32.727Z,8.50
2022-10-22T10:51:45.794Z,8.60
2022-10-22T10:54:48.701Z,9.00
2022-10-22T10:57:48.150Z,8.90
2022-10-22T11:00:46.535Z,8.87
2022-10-22T11:04:05.717Z,8.70
2022-10-22T11:07:10.828Z,8.70
2022-10-22T11:10:18.963Z,9.20
2022-10-22T11:13:18.387Z,8.93
2022-10-22T11:16:19.440Z,9.00
2022-10-22T11:19:22.562Z,9.17
2022-10-22T11:22:22.414Z,9.10
2022-10-22T11:25:22.452Z,9.10
2022-10-22T11:28:17.771Z,9.40
2022-10-22T11:31:17.552Z,9.63
2022-10-22T11:34:32.672Z,9.30
2022-10-22T11:37:26.462Z,9.40
2022-10-22T11:40:20.413Z,9.40
2022-10-22T11:43:12.169Z,9.47
2022-10-22T11:46:30.988Z,9.57
2022-10-22T11:49:26.519Z,9.43
2022-10-22T11:52:29.138Z,9.40
2022-10-22T11:55:48.031Z,9.17
2022-10-22T11:58:43.943Z,9.40
2022-10-22T12:01:44.498Z,10.07
2022-10-22T12:04:43.525Z,11.97
2022-10-22T12:07:52.481Z,11.03
2022-10-22T12:11:01.864Z,10.20
2022-10-22T12:14:20.907Z,9.73
2022-10-22T12:17:14.135Z,9.57
2022-10-22T12:20:12.798Z,9.40
2022-10-22T12:23:02.766Z,9.60
2022-10-22T12:25:52.167Z,10.33
2022-10-22T12:28:41.940Z,11.77
2022-10-22T12:31:38.146Z,10.40
2022-10-22T12:34:29.497Z,10.53
2022-10-22T12:37:20.782Z,10.10
2022-10-22T12:40:22.552Z,9.97
2022-10-22T12:43:15.946Z,10.00
2022-10-22T12:46:05.406Z,9.85
2022-10-22T12:48:55.948Z,9.60
2022-10-22T12:51:47.646Z,9.60
2022-10-22T12:54:37.209Z,9.40
2022-10-22T12:57:27.215Z,9.37
2022-10-22T13:00:26.280Z,9.80
2022-10-22T13:03:29.125Z,9.40
2022-10-22T13:06:27.327Z,9.30
2022-10-22T13:09:23.763Z,9.00
2022-10-22T13:12:18.621Z,10.07
2022-10-22T13:15:24.022Z,9.67
2022-10-22T13:18:22.544Z,9.13
2022-10-22T13:21:28.325Z,9.40
2022-10-22T13:24:25.385Z,10.73
2022-10-22T13:27:14.752Z,17.13
2022-10-22T13:30:15.755Z,12.33
2022-10-22T13:33:07.692Z,10.90
2022-10-22T13:35:58.366Z,10.50
2022-10-22T13:38:48.142Z,9.93
2022-10-22T13:41:41.473Z,9.90
2022-10-22T13:44:30.797Z,9.70
2022-10-22T13:47:28.110Z,9.30
2022-10-22T13:50:20.370Z,9.30
2022-10-22T13:53:18.869Z,9.33
2022-10-22T13:56:10.825Z,9.33
2022-10-22T13:59:01.530Z,9.03
2022-10-22T14:01:50.861Z,9.90
2022-10-22T14:04:42.209Z,9.43
2022-10-22T14:07:31.794Z,9.57
2022-10-22T14:10:25.073Z,9.60
2022-10-22T14:13:16.910Z,9.00
2022-10-22T14:16:12.586Z,9.57
2022-10-22T14:19:03.352Z,9.20
2022-10-22T14:21:52.678Z,9.20
2022-10-22T14:24:42.052Z,9.20
2022-10-22T14:27:31.409Z,9.40
2022-10-22T14:30:23.160Z,9.23
2022-10-22T14:33:18.439Z,9.70
2022-10-22T14:36:08.364Z,9.50
2022-10-22T14:38:57.717Z,9.10
2022-10-22T14:41:47.166Z,9.60
2022-10-22T14:44:36.520Z,9.43
2022-10-22T14:47:25.931Z,9.60
2022-10-22T14:50:17.167Z,9.20
2022-10-22T14:53:06.568Z,9.40
2022-10-22T14:55:59.130Z,9.93
2022-10-22T14:58:48.607Z,9.50
2022-10-22T15:01:38.870Z,9.20
2022-10-22T15:04:28.285Z,9.27
2022-10-22T15:07:20.275Z,9.53
2022-10-22T15:10:11.118Z,9.53
2022-10-22T15:13:00.455Z,9.40
2022-10-22T15:15:49.785Z,9.40
2022-10-22T15:18:39.640Z,9.30
2022-10-22T15:21:29.116Z,9.50
2022-10-22T15:24:19.823Z,9.20
2022-10-22T15:27:09.205Z,9.10
2022-10-22T15:29:59.323Z,9.30
2022-10-22T15:32:48.869Z,9.90
2022-10-22T15:35:38.218Z,9.53
2022-10-22T15:41:25.455Z,9.30
2022-10-22T15:44:18.845Z,9.60
2022-10-22T15:47:08.758Z,11.47
2022-10-22T15:49:58.225Z,12.13
2022-10-22T15:52:47.646Z,11.27
2022-10-22T15:55:37.392Z,11.00
2022-10-22T15:58:28.123Z,10.33
2022-10-22T16:01:17.533Z,9.97
2022-10-22T16:04:08.656Z,9.80
2022-10-22T16:06:59.436Z,10.10
2022-10-22T16:09:48.739Z,9.70
2022-10-22T16:12:38.177Z,10.03
2022-10-22T16:15:28.917Z,9.80
2022-10-22T16:18:18.421Z,9.70
2022-10-22T16:21:07.937Z,9.63
2022-10-22T16:23:57.233Z,10.00
2022-10-22T16:26:46.710Z,9.80
2022-10-22T16:29:38.124Z,9.97
2022-10-22T16:32:29.008Z,10.37
2022-10-22T16:35:18.536Z,10.10
2022-10-22T16:38:08.008Z,10.30
2022-10-22T16:41:10.835Z,9.97
2022-10-22T16:44:02.371Z,10.77
2022-10-22T16:46:51.718Z,10.13
2022-10-22T16:49:42.401Z,10.67
2022-10-22T16:52:31.765Z,10.20
2022-10-22T16:55:21.131Z,9.97
2022-10-22T16:58:10.445Z,10.10
2022-10-22T17:00:59.811Z,10.20
2022-10-22T17:03:49.378Z,10.53
2022-10-22T17:06:40.090Z,10.10
2022-10-22T17:09:29.431Z,10.03
2022-10-22T17:12:18.817Z,10.30
2022-10-22T17:15:09.534Z,12.00
2022-10-22T17:18:01.434Z,10.20
2022-10-22T17:20:50.792Z,10.40
2022-10-22T17:23:42.605Z,21.13
2022-10-22T17:26:33.340Z,20.60
2022-10-22T17:29:22.829Z,15.30
2022-10-22T17:32:12.245Z,12.87
2022-10-22T17:35:01.571Z,12.70
2022-10-22T17:37:51.015Z,11.70
2022-10-22T17:40:41.696Z,11.57
2022-10-22T17:43:30.994Z,10.80
2022-10-22T17:46:22.850Z,10.67
2022-10-22T17:49:18.508Z,10.57
2022-10-22T17:52:10.715Z,9.90
2022-10-22T17:55:00.058Z,9.80
2022-10-22T17:57:51.104Z,9.83
2022-10-22T18:00:40.570Z,10.67
2022-10-22T18:03:30.110Z,10.50
2022-10-22T18:06:19.580Z,11.33
2022-10-22T18:09:12.374Z,12.33
2022-10-22T18:12:03.902Z,11.40
2022-10-22T18:14:55.506Z,10.80
2022-10-22T18:17:47.051Z,10.90
2022-10-22T18:20:36.400Z,10.20
2022-10-22T18:23:25.810Z,10.20
2022-10-22T18:26:17.938Z,14.17
2022-10-22T18:29:08.824Z,13.00
2022-10-22T18:31:59.583Z,11.53
2022-10-22T18:34:49.159Z,10.80
2022-10-22T18:37:40.081Z,10.60
2022-10-22T18:40:30.529Z,11.20
2022-10-22T18:43:20.108Z,10.03
2022-10-22T18:46:10.362Z,11.63
2022-10-22T18:49:01.159Z,10.10
2022-10-22T18:51:52.891Z,10.30
2022-10-22T18:54:42.352Z,10.47
2022-10-22T18:57:31.814Z,10.33
2022-10-22T19:00:21.399Z,10.80
2022-10-22T19:03:11.342Z,23.77
2022-10-22T19:06:02.070Z,22.23
2022-10-22T19:08:51.616Z,17.57
2022-10-22T19:11:41.016Z,13.83
2022-10-22T19:14:30.397Z,13.70
2022-10-22T19:17:19.856Z,13.00
2022-10-22T19:20:11.014Z,11.13
2022-10-22T19:23:01.712Z,10.30
2022-10-22T19:26:02.181Z,10.50
2022-10-22T19:28:51.841Z,10.30
2022-10-22T19:31:41.739Z,10.20
2022-10-22T19:34:31.063Z,9.70
2022-10-22T19:37:20.463Z,10.07
2022-10-22T19:40:12.595Z,10.20
2022-10-22T19:43:02.066Z,9.67
2022-10-22T19:45:51.395Z,10.00
2022-10-22T19:48:40.931Z,9.90
2022-10-22T19:51:33.443Z,10.17
2022-10-22T19:54:22.964Z,24.10
2022-10-22T19:57:17.354Z,20.23
2022-10-22T20:00:08.270Z,15.80
2022-10-22T20:03:18.251Z,15.67
2022-10-22T20:06:10.587Z,12.90
2022-10-22T20:09:00.557Z,11.97
2022-10-22T20:11:50.047Z,11.47
2022-10-22T20:14:41.890Z,14.43
2022-10-22T20:17:31.257Z,10.43
2022-10-22T20:20:24.241Z,10.23
2022-10-22T20:23:15.996Z,10.00
2022-10-22T20:26:06.895Z,9.87
2022-10-22T20:28:57.209Z,10.13
2022-10-22T20:31:48.512Z,9.50
2022-10-22T20:34:39.551Z,10.20
2022-10-22T20:37:28.936Z,12.07
2022-10-22T20:40:20.170Z,10.07
2022-10-22T20:43:11.761Z,9.80
2022-10-22T20:46:02.046Z,9.87
2022-10-22T20:48:55.385Z,9.93
2022-10-22T20:51:45.556Z,10.00
2022-10-22T20:54:35.022Z,9.90
2022-10-22T20:57:24.395Z,9.83
2022-10-22T21:00:15.957Z,9.93
2022-10-22T21:03:05.439Z,9.80
2022-10-22T21:05:56.226Z,10.00
2022-10-22T21:08:45.645Z,9.83
2022-10-22T21:11:35.625Z,9.60
2022-10-22T21:14:25.136Z,9.80
2022-10-22T21:17:14.519Z,10.27
2022-10-22T21:20:03.896Z,9.67
2022-10-22T21:22:54.598Z,9.47
2022-10-22T21:25:54.964Z,9.90
2022-10-22T21:28:44.364Z,9.80
2022-10-22T21:31:33.697Z,9.80
2022-10-22T21:34:23.179Z,9.70
2022-10-22T21:37:12.598Z,9.63
2022-10-22T21:40:03.851Z,9.60
2022-10-22T21:42:53.212Z,10.27
2022-10-22T21:45:42.555Z,9.80
2022-10-22T21:48:31.918Z,9.80
2022-10-22T21:51:23.130Z,10.00
2022-10-22T21:54:13.518Z,10.00
2022-10-22T21:57:04.583Z,9.37
2022-10-22T21:59:53.988Z,9.73
2022-10-22T22:02:43.648Z,9.77
2022-10-22T22:05:33.277Z,9.60
2022-10-22T22:08:22.604Z,9.80
2022-10-22T22:11:14.523Z,10.10
2022-10-22T22:14:05.225Z,10.03
2022-10-22T22:16:54.515Z,9.73
2022-10-22T22:19:44.139Z,9.67
2022-10-22T22:22:33.495Z,9.63
2022-10-22T22:25:22.758Z,9.60
2022-10-22T22:28:12.087Z,9.70
2022-10-22T22:31:03.214Z,10.00
2022-10-22T22:33:52.785Z,9.90
2022-10-22T22:36:45.454Z,9.53
2022-10-22T22:39:34.794Z,9.63
2022-10-22T22:42:24.114Z,10.67
2022-10-22T22:45:13.472Z,10.00
2022-10-22T22:48:04.639Z,9.63
2022-10-22T22:50:54.078Z,9.80
2022-10-22T22:53:43.547Z,9.60
2022-10-22T22:56:35.358Z,9.57
2022-10-22T22:59:24.767Z,9.90
2022-10-22T23:02:14.109Z,10.13
2022-10-22T23:05:05.298Z,9.43
2022-10-22T23:07:54.630Z,9.77
2022-10-22T23:10:43.959Z,9.73
2022-10-22T23:13:33.758Z,9.47
2022-10-22T23:16:25.670Z,9.73
2022-10-22T23:19:18.350Z,9.77
2022-10-22T23:22:09.001Z,9.73
2022-10-22T23:24:58.340Z,9.80
2022-10-22T23:27:47.629Z,9.90
2022-10-22T23:30:42.869Z,9.57
2022-10-22T23:33:32.241Z,9.57
2022-10-22T23:36:21.514Z,11.57
2022-10-22T23:39:16.357Z,9.63
2022-10-22T23:42:05.787Z,9.40
2022-10-22T23:44:55.151Z,9.50
2022-10-22T23:47:44.676Z,9.50
2022-10-22T23:50:34.191Z,9.50
2022-10-22T23:53:23.499Z,12.80
2022-10-22T23:56:18.968Z,19.00
2022-10-22T23:59:09.642Z,13.97
